createdAt,value
2019-03-21T00:01:57.600Z,69.21
2019-03-21T00:04:29.573Z,69.21
2019-03-21T00:07:01.642Z,69.44
2019-03-21T00:09:38.281Z,69.14
2019-03-21T00:12:13.514Z,69.06
2019-03-21T00:14:57.620Z,69.06
2019-03-21T00:17:44.390Z,68.66
2019-03-21T00:20:18.279Z,68.54
2019-03-21T00:22:50.302Z,69.62
2019-03-21T00:25:26.398Z,70.40
2019-03-21T00:27:57.689Z,70.40
2019-03-21T00:30:32.704Z,70.10
2019-03-21T00:33:04.702Z,70.00
2019-03-21T00:35:38.519Z,69.84
2019-03-21T00:38:09.573Z,69.54
2019-03-21T00:40:49.056Z,71.13
2019-03-21T00:43:21.306Z,70.72
2019-03-21T00:45:54.815Z,70.83
2019-03-21T00:48:26.977Z,71.37
2019-03-21T00:50:58.974Z,71.74
2019-03-21T00:53:31.032Z,71.62
2019-03-21T00:56:02.895Z,71.66
2019-03-21T00:58:34.887Z,71.70
2019-03-21T01:01:11.053Z,71.97
2019-03-21T01:03:43.313Z,70.54
2019-03-21T01:06:15.393Z,72.98
2019-03-21T01:08:46.893Z,72.98
2019-03-21T01:11:18.769Z,73.16
2019-03-21T01:13:51.786Z,72.92
2019-03-21T01:16:24.783Z,73.21
2019-03-21T01:18:56.745Z,73.06
2019-03-21T01:21:28.847Z,73.16
2019-03-21T01:24:00.775Z,73.71
2019-03-21T01:26:32.783Z,73.67
2019-03-21T01:29:04.760Z,74.22
2019-03-21T01:31:36.633Z,74.30
2019-03-21T01:34:10.331Z,73.72
2019-03-21T01:36:43.318Z,74.11
2019-03-21T01:39:15.524Z,73.90
2019-03-21T01:41:47.386Z,73.90
2019-03-21T01:44:19.447Z,74.37
2019-03-21T01:46:51.306Z,74.37
2019-03-21T01:49:23.511Z,74.47
2019-03-21T01:51:54.706Z,74.47
2019-03-21T01:54:26.546Z,75.12
2019-03-21T01:56:58.424Z,74.96
2019-03-21T01:59:30.366Z,74.79
2019-03-21T02:02:02.412Z,74.42
2019-03-21T02:06:10.576Z,74.56
2019-03-21T02:08:42.513Z,74.41
2019-03-21T02:11:14.649Z,74.83
2019-03-21T02:13:46.501Z,74.65
2019-03-21T02:16:17.649Z,74.93
2019-03-21T02:18:49.473Z,75.50
2019-03-21T02:21:20.705Z,75.00
2019-03-21T02:23:52.611Z,74.61
2019-03-21T02:26:24.555Z,75.47
2019-03-21T02:28:56.397Z,74.34
2019-03-21T02:31:28.251Z,74.64
2019-03-21T02:34:00.358Z,75.62
2019-03-21T02:36:32.702Z,73.14
2019-03-21T02:39:05.418Z,74.67
2019-03-21T02:41:37.602Z,74.89
2019-03-21T02:44:09.522Z,75.83
2019-03-21T02:46:40.652Z,75.55
2019-03-21T02:49:12.514Z,75.07
2019-03-21T02:51:44.495Z,75.75
2019-03-21T02:54:15.680Z,75.23
2019-03-21T02:56:47.680Z,75.39
2019-03-21T02:59:19.646Z,74.70
2019-03-21T03:01:51.532Z,74.95
2019-03-21T03:04:23.372Z,75.71
2019-03-21T03:06:55.407Z,74.94
2019-03-21T03:09:27.359Z,74.94
2019-03-21T03:11:59.312Z,75.80
2019-03-21T03:14:31.424Z,76.20
2019-03-21T03:17:03.395Z,76.20
2019-03-21T03:19:35.365Z,76.89
2019-03-21T03:22:07.399Z,76.20
2019-03-21T03:24:39.387Z,76.20
2019-03-21T03:27:11.358Z,77.05
2019-03-21T03:29:43.271Z,76.12
2019-03-21T03:32:15.301Z,77.56
2019-03-21T03:34:47.301Z,76.91
2019-03-21T03:37:19.594Z,76.91
2019-03-21T03:39:51.420Z,76.98
2019-03-21T03:42:23.350Z,77.32
2019-03-21T03:44:55.332Z,78.15
2019-03-21T03:47:27.443Z,76.40
2019-03-21T03:49:59.346Z,76.40
2019-03-21T03:52:31.293Z,78.11
2019-03-21T03:55:03.305Z,77.36
2019-03-21T03:57:35.326Z,77.87
2019-03-21T04:00:11.936Z,77.87
2019-03-21T04:02:44.118Z,78.60
2019-03-21T04:05:16.476Z,78.60
2019-03-21T04:07:48.239Z,76.10
2019-03-21T04:10:35.263Z,77.19
2019-03-21T04:13:07.312Z,77.72
2019-03-21T04:15:51.812Z,76.62
2019-03-21T04:18:13.338Z,77.23
2019-03-21T04:20:57.389Z,77.30
2019-03-21T04:23:28.599Z,77.30
2019-03-21T04:26:21.494Z,78.30
2019-03-21T04:28:52.925Z,78.14
2019-03-21T04:31:24.706Z,78.47
2019-03-21T04:34:05.895Z,78.51
2019-03-21T04:36:37.789Z,79.15
2019-03-21T04:39:11.518Z,78.84
2019-03-21T04:41:45.725Z,79.11
2019-03-21T04:44:17.749Z,76.23
2019-03-21T04:46:49.606Z,77.76
2019-03-21T04:49:21.518Z,78.04
2019-03-21T04:51:53.387Z,77.68
2019-03-21T04:54:24.598Z,78.03
2019-03-21T04:56:56.504Z,78.91
2019-03-21T04:59:28.499Z,73.54
2019-03-21T05:01:59.670Z,73.62
2019-03-21T05:04:31.639Z,76.61
2019-03-21T05:07:03.875Z,76.46
2019-03-21T05:09:36.050Z,78.18
2019-03-21T05:12:10.285Z,76.59
2019-03-21T05:14:41.710Z,76.72
2019-03-21T05:17:13.571Z,75.69
2019-03-21T05:19:45.525Z,79.03
2019-03-21T05:22:17.775Z,78.29
2019-03-21T05:24:50.853Z,78.87
2019-03-21T05:27:23.474Z,77.40
2019-03-21T05:29:54.657Z,79.16
2019-03-21T05:32:26.686Z,79.07
2019-03-21T05:34:58.643Z,79.20
2019-03-21T05:37:30.579Z,79.08
2019-03-21T05:40:02.600Z,79.46
2019-03-21T05:42:34.581Z,79.66
2019-03-21T05:45:15.654Z,79.24
2019-03-21T05:47:48.063Z,79.84
2019-03-21T05:50:20.380Z,79.98
2019-03-21T05:52:52.551Z,78.95
2019-03-21T05:55:26.712Z,79.07
2019-03-21T05:57:57.718Z,80.09
2019-03-21T06:00:51.557Z,79.51
2019-03-21T06:03:36.393Z,78.10
2019-03-21T06:06:34.314Z,78.86
2019-03-21T06:09:22.338Z,79.75
2019-03-21T06:12:05.822Z,76.21
2019-03-21T06:15:04.292Z,76.21
2019-03-21T06:17:36.264Z,75.89
2019-03-21T06:20:56.511Z,76.63
2019-03-21T06:23:41.567Z,76.63
2019-03-21T06:26:28.567Z,75.42
2019-03-21T06:29:00.486Z,73.81
2019-03-21T06:31:31.690Z,73.33
2019-03-21T06:34:03.833Z,71.99
2019-03-21T06:36:36.783Z,71.25
2019-03-21T06:39:10.700Z,70.26
2019-03-21T06:41:42.825Z,73.44
2019-03-21T06:44:14.817Z,70.71
2019-03-21T06:46:49.658Z,71.09
2019-03-21T06:49:21.282Z,73.40
2019-03-21T06:51:53.495Z,72.54
2019-03-21T07:15:46.598Z,68.16
2019-03-21T07:18:18.641Z,68.16
2019-03-21T07:20:50.988Z,70.13
2019-03-21T07:23:24.772Z,68.61
2019-03-21T07:25:56.936Z,68.50
2019-03-21T07:28:29.774Z,67.87
2019-03-21T07:31:01.700Z,67.51
2019-03-21T07:33:35.465Z,66.30
2019-03-21T07:36:06.671Z,65.74
2019-03-21T07:38:38.917Z,66.29
2019-03-21T07:41:11.335Z,65.50
2019-03-21T07:43:43.440Z,64.31
2019-03-21T07:46:15.476Z,64.47
2019-03-21T07:48:46.645Z,63.87
2019-03-21T07:51:18.667Z,65.57
2019-03-21T07:53:50.696Z,64.08
2019-03-21T07:56:24.940Z,63.49
2019-03-21T07:58:58.288Z,63.24
2019-03-21T08:01:30.321Z,62.68
2019-03-21T08:04:03.152Z,62.68
2019-03-21T08:06:37.352Z,62.61
2019-03-21T08:09:11.048Z,62.61
2019-03-21T08:11:43.047Z,61.37
2019-03-21T08:14:18.359Z,60.52
2019-03-21T08:16:50.472Z,60.69
2019-03-21T08:19:24.299Z,60.55
2019-03-21T08:21:56.305Z,59.03
2019-03-21T08:24:28.414Z,58.28
2019-03-21T08:27:00.480Z,58.28
2019-03-21T08:29:33.031Z,58.00
2019-03-21T08:32:06.553Z,56.57
2019-03-21T08:34:38.614Z,55.16
2019-03-21T08:37:12.347Z,54.04
2019-03-21T08:39:44.297Z,54.72
2019-03-21T08:42:16.385Z,54.35
2019-03-21T08:44:51.285Z,52.10
2019-03-21T08:47:23.347Z,51.19
2019-03-21T08:49:55.261Z,51.19
2019-03-21T08:52:27.711Z,50.36
2019-03-21T08:54:59.819Z,50.19
2019-03-21T08:57:31.987Z,48.26
2019-03-21T09:00:09.298Z,48.04
2019-03-21T09:02:41.363Z,46.30
2019-03-21T09:05:15.033Z,46.30
2019-03-21T09:07:47.047Z,45.59
2019-03-21T09:10:21.429Z,45.18
2019-03-21T09:12:53.464Z,44.99
2019-03-21T09:15:25.505Z,44.71
2019-03-21T09:17:57.666Z,44.02
2019-03-21T09:20:30.113Z,44.05
2019-03-21T09:23:02.288Z,44.50
2019-03-21T09:25:34.333Z,43.75
2019-03-21T09:28:06.325Z,42.93
2019-03-21T09:30:38.288Z,43.05
2019-03-21T09:33:11.044Z,42.40
2019-03-21T09:35:43.802Z,42.40
2019-03-21T09:38:16.527Z,41.72
2019-03-21T09:40:51.867Z,41.95
2019-03-21T09:43:24.304Z,41.92
2019-03-21T09:45:57.594Z,41.11
2019-03-21T09:48:30.260Z,40.29
2019-03-21T09:51:06.510Z,40.10
2019-03-21T09:53:38.690Z,40.10
2019-03-21T09:56:11.298Z,38.51
2019-03-21T09:58:44.727Z,37.78
2019-03-21T10:01:18.675Z,37.78
2019-03-21T10:03:51.418Z,37.46
2019-03-21T10:06:26.078Z,37.38
2019-03-21T10:08:58.292Z,37.66
2019-03-21T10:11:30.394Z,36.00
2019-03-21T10:14:02.343Z,35.49
2019-03-21T10:16:36.649Z,35.62
2019-03-21T10:19:08.748Z,35.62
2019-03-21T10:21:43.534Z,35.23
2019-03-21T10:24:14.533Z,34.01
2019-03-21T10:26:47.067Z,34.23
2019-03-21T10:29:19.323Z,35.45
2019-03-21T10:31:51.381Z,31.02
2019-03-21T10:34:23.329Z,30.52
2019-03-21T10:36:55.383Z,31.15
2019-03-21T10:39:29.492Z,31.19
2019-03-21T10:42:01.547Z,31.19
2019-03-21T10:44:33.836Z,30.89
2019-03-21T10:47:05.981Z,29.89
2019-03-21T10:49:38.298Z,28.96
2019-03-21T10:52:12.039Z,30.82
2019-03-21T10:54:45.297Z,30.82
2019-03-21T10:57:17.448Z,30.04
2019-03-21T10:59:49.018Z,30.04
2019-03-21T11:02:21.289Z,29.23
2019-03-21T11:04:53.414Z,27.44
2019-03-21T11:07:23.285Z,27.44
2019-03-21T11:09:55.307Z,26.66
2019-03-21T11:12:30.662Z,27.80
2019-03-21T11:15:03.878Z,27.80
2019-03-21T11:17:36.011Z,25.95
2019-03-21T11:20:09.285Z,26.65
2019-03-21T11:22:41.538Z,26.13
2019-03-21T11:25:13.756Z,26.13
2019-03-21T11:27:45.702Z,24.68
2019-03-21T11:30:35.295Z,24.97
2019-03-21T11:33:07.582Z,24.41
2019-03-21T11:35:40.289Z,24.41
2019-03-21T11:38:12.333Z,25.39
2019-03-21T11:40:44.444Z,25.29
2019-03-21T11:43:15.902Z,25.29
2019-03-21T11:45:48.368Z,24.70
2019-03-21T11:48:19.644Z,24.56
2019-03-21T11:50:54.790Z,25.51
2019-03-21T11:53:26.718Z,24.94
2019-03-21T11:55:59.296Z,24.77
2019-03-21T11:58:31.366Z,24.47
2019-03-21T12:01:04.890Z,24.84
2019-03-21T12:03:37.032Z,24.84
2019-03-21T12:06:09.308Z,23.42
2019-03-21T12:08:41.462Z,22.82
2019-03-21T12:11:12.626Z,22.82
2019-03-21T12:13:44.572Z,23.08
2019-03-21T12:16:16.438Z,22.60
2019-03-21T12:18:48.459Z,22.63
2019-03-21T12:21:19.768Z,21.77
2019-03-21T12:23:51.702Z,21.78
2019-03-21T12:26:23.677Z,20.21
2019-03-21T12:28:55.714Z,19.94
2019-03-21T12:31:27.786Z,20.54
2019-03-21T12:34:00.319Z,19.04
2019-03-21T12:36:34.597Z,16.72
2019-03-21T12:39:09.463Z,16.72
2019-03-21T12:41:40.875Z,15.98
2019-03-21T12:44:14.374Z,14.86
2019-03-21T12:46:45.652Z,15.02
2019-03-21T12:49:17.676Z,13.18
2019-03-21T12:51:51.364Z,13.36
2019-03-21T12:54:22.939Z,12.89
2019-03-21T12:56:54.786Z,12.69
2019-03-21T12:59:26.695Z,12.78
2019-03-21T13:02:00.298Z,12.08
2019-03-21T13:04:32.322Z,11.36
2019-03-21T13:07:05.941Z,11.36
2019-03-21T13:09:37.983Z,10.83
2019-03-21T13:12:10.292Z,11.07
2019-03-21T13:14:41.615Z,12.34
2019-03-21T13:17:13.539Z,12.34
2019-03-21T13:19:45.859Z,12.55
2019-03-21T13:22:17.911Z,11.65
2019-03-21T13:25:06.731Z,11.11
2019-03-21T13:27:38.697Z,11.03
2019-03-21T13:30:13.583Z,10.34
2019-03-21T13:32:47.094Z,9.87
2019-03-21T13:39:03.667Z,10.21
2019-03-21T13:41:38.356Z,9.90
2019-03-21T13:44:10.290Z,11.94
2019-03-21T13:46:54.248Z,11.46
2019-03-21T13:49:27.746Z,11.46
2019-03-21T13:51:59.653Z,10.92
2019-03-21T13:54:31.574Z,10.70
2019-03-21T13:57:03.584Z,10.16
2019-03-21T14:02:29.361Z,11.59
2019-03-21T14:05:10.354Z,11.59
2019-03-21T14:07:41.595Z,9.98
2019-03-21T14:13:21.308Z,10.74
2019-03-21T14:15:53.362Z,10.79
2019-03-21T14:22:07.303Z,10.27
2019-03-21T14:28:05.601Z,10.38
2019-03-21T14:30:37.951Z,10.26
2019-03-21T14:33:09.880Z,9.36
2019-03-21T14:35:43.610Z,10.89
2019-03-21T14:38:25.890Z,11.46
2019-03-21T14:40:49.227Z,9.43
2019-03-21T14:43:21.304Z,9.43
2019-03-21T14:45:53.537Z,10.08
2019-03-21T14:48:29.911Z,10.08
2019-03-21T15:00:17.504Z,10.27
2019-03-21T15:02:49.774Z,10.27
2019-03-21T15:05:21.897Z,9.05
2019-03-21T15:07:53.796Z,7.88
2019-03-21T15:10:26.016Z,8.28
2019-03-21T15:13:00.609Z,9.21
2019-03-21T15:15:32.583Z,10.45
2019-03-21T15:18:04.654Z,11.16
2019-03-21T15:20:37.078Z,11.30
2019-03-21T15:23:09.290Z,10.19
2019-03-21T15:25:41.371Z,9.62
2019-03-21T15:28:13.452Z,9.62
2019-03-21T15:30:46.327Z,10.24
2019-03-21T15:33:18.292Z,9.87
2019-03-21T15:35:51.694Z,9.87
2019-03-21T15:38:23.461Z,10.51
2019-03-21T15:40:55.237Z,10.45
2019-03-21T15:43:27.287Z,9.61
2019-03-21T15:45:59.318Z,10.43
2019-03-21T15:48:31.348Z,10.83
2019-03-21T15:51:04.725Z,10.67
2019-03-21T15:53:37.450Z,10.32
2019-03-21T15:56:09.663Z,10.32
2019-03-21T15:58:41.881Z,12.39
2019-03-21T16:01:13.843Z,12.97
2019-03-21T16:03:45.803Z,12.43
2019-03-21T16:06:17.712Z,12.14
2019-03-21T16:08:49.814Z,13.00
2019-03-21T16:11:22.018Z,13.68
2019-03-21T16:13:54.264Z,13.06
2019-03-21T16:16:26.302Z,14.10
2019-03-21T16:18:58.322Z,13.40
2019-03-21T16:21:30.736Z,13.40
2019-03-21T16:24:05.396Z,14.39
2019-03-21T16:26:36.949Z,14.21
2019-03-21T16:29:10.348Z,14.52
2019-03-21T16:31:42.591Z,14.37
2019-03-21T16:34:14.806Z,14.24
2019-03-21T16:36:48.291Z,13.85
2019-03-21T16:39:20.470Z,14.89
2019-03-21T16:41:51.933Z,14.89
2019-03-21T16:44:24.283Z,15.28
2019-03-21T16:46:56.356Z,14.82
2019-03-21T16:49:28.343Z,15.30
2019-03-21T16:52:00.620Z,16.16
2019-03-21T16:54:32.791Z,16.16
2019-03-21T16:57:08.904Z,16.43
2019-03-21T16:59:41.167Z,16.87
2019-03-21T17:02:13.298Z,17.39
2019-03-21T17:04:45.489Z,19.64
2019-03-21T17:07:16.916Z,19.64
2019-03-21T17:09:49.313Z,21.18
2019-03-21T17:12:23.020Z,22.54
2019-03-21T17:14:55.189Z,22.54
2019-03-21T17:17:30.437Z,23.88
2019-03-21T17:20:03.834Z,23.90
2019-03-21T17:22:36.282Z,24.43
2019-03-21T17:25:09.596Z,25.52
2019-03-21T17:27:41.669Z,25.52
2019-03-21T17:30:16.507Z,26.73
2019-03-21T17:32:48.640Z,26.75
2019-03-21T17:35:22.364Z,26.61
2019-03-21T17:37:55.054Z,27.35
2019-03-21T17:40:27.361Z,28.01
2019-03-21T17:42:59.247Z,28.21
2019-03-21T17:45:32.837Z,28.52
2019-03-21T17:48:05.981Z,29.49
2019-03-21T17:50:38.403Z,29.62
2019-03-21T17:53:10.661Z,30.10
2019-03-21T17:55:42.739Z,31.03
2019-03-21T17:58:14.743Z,30.35
2019-03-21T18:00:47.030Z,30.46
2019-03-21T18:03:19.297Z,30.88
2019-03-21T18:05:52.566Z,32.57
2019-03-21T18:08:24.741Z,32.57
2019-03-21T18:10:57.414Z,32.65
2019-03-21T18:13:29.699Z,33.33
2019-03-21T18:16:01.900Z,33.13
2019-03-21T18:18:33.971Z,33.57
2019-03-21T18:21:06.193Z,33.94
2019-03-21T18:23:38.440Z,34.78
2019-03-21T18:26:09.908Z,34.78
2019-03-21T18:28:42.330Z,34.64
2019-03-21T18:31:14.362Z,34.54
2019-03-21T18:33:46.426Z,34.83
2019-03-21T18:36:17.617Z,34.83
2019-03-21T18:38:58.744Z,35.82
2019-03-21T18:41:23.562Z,35.71
2019-03-21T18:43:55.727Z,36.71
2019-03-21T18:46:27.656Z,37.03
2019-03-21T18:48:59.753Z,38.40
2019-03-21T18:51:31.701Z,38.02
2019-03-21T18:54:04.057Z,39.79
2019-03-21T18:56:36.299Z,39.95
2019-03-21T18:59:08.423Z,40.55
2019-03-21T19:01:39.881Z,40.55
2019-03-21T19:04:12.227Z,42.06
2019-03-21T19:06:44.323Z,40.32
2019-03-21T19:09:16.259Z,40.54
2019-03-21T19:11:48.559Z,41.23
2019-03-21T19:14:20.678Z,42.80
2019-03-21T19:16:52.982Z,41.89
2019-03-21T19:19:25.302Z,42.34
2019-03-21T19:21:57.778Z,43.72
2019-03-21T19:24:31.585Z,43.72
2019-03-21T19:27:03.700Z,43.04
2019-03-21T19:29:36.312Z,43.82
2019-03-21T19:32:08.394Z,45.91
2019-03-21T19:34:40.011Z,45.91
2019-03-21T19:37:12.069Z,45.89
2019-03-21T19:39:45.802Z,45.75
2019-03-21T19:42:18.044Z,46.13
2019-03-21T19:44:54.224Z,46.64
2019-03-21T19:47:30.499Z,48.38
2019-03-21T19:50:03.874Z,48.38
2019-03-21T19:52:40.675Z,47.73
2019-03-21T19:55:30.162Z,47.89
2019-03-21T19:57:55.265Z,48.55
2019-03-21T20:00:29.299Z,48.23
2019-03-21T20:03:05.867Z,48.52
2019-03-21T20:05:40.530Z,48.52
2019-03-21T20:08:12.667Z,49.48
2019-03-21T20:10:44.627Z,49.88
2019-03-21T20:13:16.801Z,51.11
2019-03-21T20:15:49.057Z,50.17
2019-03-21T20:18:24.548Z,51.06
2019-03-21T20:20:58.542Z,51.66
2019-03-21T20:23:30.697Z,51.96
2019-03-21T20:26:04.964Z,51.73
2019-03-21T20:28:39.560Z,52.19
2019-03-21T20:31:11.680Z,52.20
2019-03-21T20:33:45.383Z,52.78
2019-03-21T20:36:16.931Z,52.27
2019-03-21T20:38:49.074Z,52.87
2019-03-21T20:41:21.733Z,53.37
2019-03-21T20:43:54.124Z,52.80
2019-03-21T20:46:26.318Z,53.34
2019-03-21T20:49:01.469Z,53.94
2019-03-21T20:51:36.302Z,54.13
2019-03-21T20:54:08.406Z,54.94
2019-03-21T20:56:42.270Z,54.94
2019-03-21T20:59:17.318Z,54.23
2019-03-21T21:01:49.273Z,55.90
2019-03-21T21:04:22.505Z,55.29
2019-03-21T21:06:54.824Z,55.88
2019-03-21T21:09:27.287Z,55.52
2019-03-21T21:11:59.407Z,55.78
2019-03-21T21:14:31.370Z,55.78
2019-03-21T21:17:03.373Z,56.97
2019-03-21T21:19:35.380Z,56.24
2019-03-21T21:22:07.433Z,56.24
2019-03-21T21:24:39.033Z,56.58
2019-03-21T21:27:10.986Z,57.19
2019-03-21T21:29:44.818Z,56.30
2019-03-21T21:32:30.385Z,54.30
2019-03-21T21:35:09.284Z,56.24
2019-03-21T21:37:45.817Z,58.12
2019-03-21T21:40:19.041Z,56.74
2019-03-21T21:42:52.451Z,56.81
2019-03-21T21:45:23.709Z,57.33
2019-03-21T21:47:55.615Z,57.81
2019-03-21T21:50:27.723Z,58.28
2019-03-21T21:52:59.632Z,58.29
2019-03-21T21:55:31.706Z,58.66
2019-03-21T21:58:04.106Z,58.80
2019-03-21T22:00:36.305Z,60.07
2019-03-21T22:03:08.302Z,59.61
2019-03-21T22:05:40.490Z,59.56
2019-03-21T22:08:12.052Z,59.56
2019-03-21T22:10:43.894Z,60.46
2019-03-21T22:13:15.844Z,60.78
2019-03-21T22:15:48.562Z,60.61
2019-03-21T22:18:20.659Z,61.55
2019-03-21T22:20:52.822Z,61.43
2019-03-21T22:23:24.792Z,61.48
2019-03-21T22:25:56.833Z,61.48
2019-03-21T22:28:28.712Z,61.93
2019-03-21T22:31:00.732Z,61.55
2019-03-21T22:33:34.309Z,61.42
2019-03-21T22:36:06.673Z,61.70
2019-03-21T22:38:46.290Z,61.70
2019-03-21T22:41:27.345Z,61.81
2019-03-21T22:44:03.281Z,61.81
2019-03-21T22:46:54.258Z,62.52
2019-03-21T22:49:26.421Z,62.39
2019-03-21T22:51:58.382Z,62.39
2019-03-21T22:54:30.809Z,63.54
2019-03-21T22:57:04.291Z,63.54
2019-03-21T22:59:36.526Z,62.31
2019-03-21T23:02:10.406Z,62.63
2019-03-21T23:04:41.693Z,63.57
2019-03-21T23:07:16.547Z,62.98
2019-03-21T23:09:48.392Z,62.99
2019-03-21T23:12:20.430Z,64.58
2019-03-21T23:14:52.445Z,64.58
2019-03-21T23:17:30.425Z,63.96
2019-03-21T23:20:06.549Z,64.14
2019-03-21T23:22:41.035Z,63.36
2019-03-21T23:25:17.329Z,64.55
2019-03-21T23:27:49.306Z,65.38
2019-03-21T23:30:20.758Z,65.38
2019-03-21T23:32:52.697Z,65.69
2019-03-21T23:35:25.034Z,66.47
2019-03-21T23:37:57.297Z,66.92
2019-03-21T23:40:29.402Z,67.27
2019-03-21T23:43:02.313Z,67.27
2019-03-21T23:45:34.502Z,66.52
2019-03-21T23:48:08.325Z,66.52
2019-03-21T23:50:40.377Z,66.85
2019-03-21T23:53:12.293Z,66.82
2019-03-21T23:55:44.363Z,67.51
2019-03-21T23:58:15.637Z,67.51
